createdAt,value
2018-09-04T00:00:59.239Z,1.90
2018-09-04T00:01:59.154Z,1.90
2018-09-04T00:02:59.166Z,1.70
2018-09-04T00:03:59.177Z,1.60
2018-09-04T00:04:59.188Z,1.60
2018-09-04T00:05:59.342Z,1.70
2018-09-04T00:06:59.219Z,1.70
2018-09-04T00:07:59.230Z,1.80
2018-09-04T00:08:59.230Z,1.90
2018-09-04T00:09:59.258Z,1.80
2018-09-04T00:10:59.520Z,1.60
2018-09-04T00:11:59.276Z,1.80
2018-09-04T00:12:59.298Z,1.40
2018-09-04T00:13:59.302Z,1.60
2018-09-04T00:14:59.315Z,1.80
2018-09-04T00:15:59.333Z,1.60
2018-09-04T00:16:59.446Z,1.80
2018-09-04T00:17:59.353Z,1.70
2018-09-04T00:18:59.365Z,1.70
2018-09-04T00:19:59.383Z,1.80
2018-09-04T00:20:59.388Z,1.90
2018-09-04T00:21:59.403Z,1.80
2018-09-04T00:22:59.518Z,1.60
2018-09-04T00:23:59.414Z,1.60
2018-09-04T00:24:59.439Z,1.50
2018-09-04T00:25:59.435Z,1.50
2018-09-04T00:26:59.466Z,1.60
2018-09-04T00:27:59.611Z,1.40
2018-09-04T00:28:59.491Z,1.40
2018-09-04T00:29:59.506Z,1.50
2018-09-04T00:30:59.512Z,1.40
2018-09-04T00:31:59.528Z,1.40
2018-09-04T00:32:59.693Z,1.50
2018-09-04T00:33:59.547Z,1.50
2018-09-04T00:34:59.548Z,1.50
2018-09-04T00:35:59.572Z,1.60
2018-09-04T00:36:59.589Z,1.60
2018-09-04T00:37:59.703Z,1.70
2018-09-04T00:38:59.597Z,1.60
2018-09-04T00:39:59.629Z,1.90
2018-09-04T00:40:59.635Z,1.60
2018-09-04T00:41:59.647Z,1.60
2018-09-04T00:42:59.761Z,1.70
2018-09-04T00:43:59.672Z,1.70
2018-09-04T00:44:59.692Z,1.80
2018-09-04T00:45:59.701Z,1.80
2018-09-04T00:46:59.711Z,1.80
2018-09-04T00:47:59.860Z,1.60
2018-09-04T00:48:59.738Z,1.70
2018-09-04T00:49:59.748Z,1.80
2018-09-04T00:50:59.762Z,1.70
2018-09-04T00:51:59.754Z,1.70
2018-09-04T00:53:00.035Z,1.70
2018-09-04T00:53:59.800Z,1.90
2018-09-04T00:54:59.811Z,1.90
2018-09-04T00:55:59.803Z,1.90
2018-09-04T00:56:59.834Z,1.90
2018-09-04T00:57:59.989Z,1.80
2018-09-04T00:58:59.922Z,1.80
2018-09-04T00:59:59.871Z,1.90
2018-09-04T01:00:59.881Z,1.80
2018-09-04T01:01:59.892Z,1.90
2018-09-04T01:02:59.996Z,1.70
2018-09-04T01:03:59.913Z,1.70
2018-09-04T01:04:59.924Z,1.60
2018-09-04T01:05:59.937Z,1.60
2018-09-04T01:06:59.956Z,1.50
2018-09-04T01:08:00.116Z,1.60
2018-09-04T01:08:59.967Z,1.60
2018-09-04T01:09:59.986Z,1.70
2018-09-04T01:10:59.997Z,2.00
2018-09-04T01:12:00.012Z,2.20
2018-09-04T01:13:00.110Z,2.30
2018-09-04T01:14:00.023Z,1.80
2018-09-04T01:15:00.048Z,1.80
2018-09-04T01:16:00.062Z,1.40
2018-09-04T01:17:00.072Z,1.60
2018-09-04T01:18:00.239Z,1.40
2018-09-04T01:19:00.096Z,1.60
2018-09-04T01:20:00.106Z,1.60
2018-09-04T01:21:00.122Z,1.60
2018-09-04T01:22:00.121Z,1.40
2018-09-04T01:23:00.242Z,1.50
2018-09-04T01:24:00.143Z,1.50
2018-09-04T01:25:00.177Z,1.40
2018-09-04T01:26:00.166Z,1.40
2018-09-04T01:27:00.195Z,1.50
2018-09-04T01:28:00.355Z,1.70
2018-09-04T01:29:00.214Z,1.70
2018-09-04T01:30:00.228Z,1.50
2018-09-04T01:31:00.242Z,1.60
2018-09-04T01:32:00.250Z,1.50
2018-09-04T01:33:00.410Z,1.50
2018-09-04T01:34:00.277Z,1.40
2018-09-04T01:35:00.274Z,1.30
2018-09-04T01:36:00.304Z,1.30
2018-09-04T01:37:00.312Z,1.20
2018-09-04T01:38:00.322Z,1.50
2018-09-04T01:39:00.435Z,1.20
2018-09-04T01:40:00.346Z,1.30
2018-09-04T01:41:00.362Z,1.40
2018-09-04T01:42:00.354Z,1.30
2018-09-04T01:43:00.385Z,1.40
2018-09-04T01:44:00.541Z,1.30
2018-09-04T01:45:00.408Z,1.40
2018-09-04T01:46:00.418Z,1.30
2018-09-04T01:47:00.428Z,1.20
2018-09-04T01:48:00.442Z,1.40
2018-09-04T01:49:00.551Z,1.50
2018-09-04T01:50:00.462Z,1.40
2018-09-04T01:51:00.479Z,1.20
2018-09-04T01:52:00.488Z,1.20
2018-09-04T01:53:00.503Z,1.60
2018-09-04T01:54:00.590Z,1.60
2018-09-04T01:55:00.525Z,1.50
2018-09-04T01:56:00.540Z,1.40
2018-09-04T01:57:00.546Z,1.20
2018-09-04T01:58:00.538Z,1.30
2018-09-04T01:59:00.671Z,1.20
2018-09-04T02:00:00.579Z,1.10
2018-09-04T02:01:00.579Z,1.20
2018-09-04T02:02:00.602Z,1.50
2018-09-04T02:03:00.613Z,1.70
2018-09-04T02:04:00.778Z,1.50
2018-09-04T02:05:00.641Z,1.40
2018-09-04T02:06:00.645Z,1.90
2018-09-04T02:07:00.667Z,1.70
2018-09-04T02:08:00.670Z,1.90
2018-09-04T02:09:00.933Z,1.80
2018-09-04T02:10:00.692Z,1.80
2018-09-04T02:11:00.705Z,1.70
2018-09-04T02:12:00.721Z,1.60
2018-09-04T02:13:00.729Z,1.70
2018-09-04T02:14:00.878Z,1.60
2018-09-04T02:15:00.750Z,1.60
2018-09-04T02:16:00.770Z,1.80
2018-09-04T02:17:00.777Z,1.40
2018-09-04T02:18:00.826Z,1.80
2018-09-04T02:19:00.900Z,1.90
2018-09-04T02:20:00.812Z,1.80
2018-09-04T02:21:00.815Z,1.40
2018-09-04T02:22:00.813Z,1.40
2018-09-04T02:23:00.839Z,1.50
2018-09-04T02:24:01.006Z,1.40
2018-09-04T02:25:00.873Z,1.50
2018-09-04T02:26:00.880Z,1.70
2018-09-04T02:27:00.869Z,1.50
2018-09-04T02:28:00.899Z,1.60
2018-09-04T02:29:01.062Z,1.50
2018-09-04T02:30:00.922Z,1.50
2018-09-04T02:31:00.934Z,1.40
2018-09-04T02:32:00.944Z,1.50
2018-09-04T02:33:00.983Z,1.60
2018-09-04T02:34:01.120Z,1.50
2018-09-04T02:35:01.030Z,2.00
2018-09-04T02:36:00.989Z,1.80
2018-09-04T02:37:00.981Z,1.70
2018-09-04T02:38:01.012Z,1.70
2018-09-04T02:39:01.172Z,1.60
2018-09-04T02:40:01.033Z,1.60
2018-09-04T02:41:01.054Z,1.50
2018-09-04T02:42:01.055Z,1.60
2018-09-04T02:43:01.065Z,1.70
2018-09-04T02:44:01.176Z,1.60
2018-09-04T02:45:01.076Z,1.80
2018-09-04T02:46:01.098Z,1.70
2018-09-04T02:47:01.118Z,1.60
2018-09-04T02:48:01.126Z,1.70
2018-09-04T02:49:01.231Z,1.70
2018-09-04T02:50:01.143Z,1.80
2018-09-04T02:51:01.156Z,1.70
2018-09-04T02:52:01.166Z,1.70
2018-09-04T02:53:01.169Z,1.90
2018-09-04T02:54:01.288Z,1.80
2018-09-04T02:55:01.204Z,1.90
2018-09-04T02:56:01.203Z,1.80
2018-09-04T02:57:01.219Z,1.80
2018-09-04T02:58:01.230Z,1.80
2018-09-04T02:59:01.348Z,1.70
2018-09-04T03:00:01.245Z,1.70
2018-09-04T03:01:01.271Z,1.80
2018-09-04T03:02:01.277Z,1.90
2018-09-04T03:03:01.291Z,1.80
2018-09-04T03:04:01.285Z,1.80
2018-09-04T03:05:01.411Z,1.80
2018-09-04T03:06:01.322Z,1.80
2018-09-04T03:07:01.335Z,1.70
2018-09-04T03:08:01.331Z,1.70
2018-09-04T03:09:01.352Z,1.90
2018-09-04T03:10:01.375Z,1.60
2018-09-04T03:11:01.480Z,1.80
2018-09-04T03:12:01.385Z,1.70
2018-09-04T03:13:01.389Z,1.60
2018-09-04T03:14:01.464Z,1.50
2018-09-04T03:15:01.429Z,1.40
2018-09-04T03:16:01.589Z,1.50
2018-09-04T03:17:01.448Z,1.40
2018-09-04T03:18:01.454Z,1.50
2018-09-04T03:19:01.462Z,1.60
2018-09-04T03:20:01.475Z,1.40
2018-09-04T03:21:01.578Z,1.40
2018-09-04T03:22:01.499Z,1.50
2018-09-04T03:23:01.569Z,1.50
2018-09-04T03:24:01.519Z,1.50
2018-09-04T03:25:01.541Z,1.50
2018-09-04T03:26:01.698Z,1.70
2018-09-04T03:27:01.551Z,1.40
2018-09-04T03:28:01.566Z,1.50
2018-09-04T03:29:01.571Z,1.60
2018-09-04T03:30:01.584Z,1.60
2018-09-04T03:31:01.745Z,1.50
2018-09-04T03:32:01.610Z,1.30
2018-09-04T03:33:01.620Z,1.50
2018-09-04T03:34:01.630Z,1.60
2018-09-04T03:35:01.634Z,1.50
2018-09-04T03:36:01.747Z,1.70
2018-09-04T03:37:01.664Z,1.50
2018-09-04T03:38:01.673Z,1.40
2018-09-04T03:39:01.685Z,1.40
2018-09-04T03:40:01.679Z,1.60
2018-09-04T03:41:01.863Z,1.50
2018-09-04T03:42:01.710Z,1.60
2018-09-04T03:43:01.728Z,1.50
2018-09-04T03:44:01.740Z,1.40
2018-09-04T03:45:01.754Z,1.50
2018-09-04T03:46:01.909Z,1.40
2018-09-04T03:47:01.752Z,1.60
2018-09-04T03:48:01.781Z,1.40
2018-09-04T03:49:01.790Z,1.50
2018-09-04T03:50:01.812Z,1.50
2018-09-04T03:51:02.066Z,1.60
2018-09-04T03:52:01.827Z,1.50
2018-09-04T03:53:01.841Z,1.40
2018-09-04T03:54:01.845Z,1.50
2018-09-04T03:55:01.846Z,1.60
2018-09-04T03:56:01.970Z,1.40
2018-09-04T03:57:01.869Z,1.50
2018-09-04T03:58:01.871Z,1.50
2018-09-04T03:59:01.914Z,1.40
2018-09-04T04:00:01.928Z,1.20
2018-09-04T04:01:02.133Z,1.30
2018-09-04T04:02:01.932Z,1.40
2018-09-04T04:03:01.967Z,1.50
2018-09-04T04:04:01.960Z,1.50
2018-09-04T04:05:01.971Z,1.30
2018-09-04T04:06:02.059Z,1.30
2018-09-04T04:07:01.985Z,1.50
2018-09-04T04:08:01.996Z,1.50
2018-09-04T04:09:02.013Z,1.40
2018-09-04T04:10:02.025Z,1.40
2018-09-04T04:11:02.178Z,1.40
2018-09-04T04:12:02.087Z,1.40
2018-09-04T04:13:02.057Z,1.30
2018-09-04T04:14:02.267Z,1.40
2018-09-04T04:15:02.066Z,1.30
2018-09-04T04:16:02.183Z,1.30
2018-09-04T04:17:02.097Z,1.40
2018-09-04T04:18:02.108Z,1.30
2018-09-04T04:19:02.107Z,1.40
2018-09-04T04:20:02.129Z,1.30
2018-09-04T04:21:02.240Z,1.30
2018-09-04T04:22:02.156Z,1.30
2018-09-04T04:23:02.164Z,1.30
2018-09-04T04:24:02.216Z,1.30
2018-09-04T04:25:02.173Z,1.30
2018-09-04T04:26:02.329Z,1.40
2018-09-04T04:27:02.207Z,1.30
2018-09-04T04:28:02.217Z,1.40
2018-09-04T04:29:02.439Z,1.10
2018-09-04T04:30:02.236Z,1.30
2018-09-04T04:31:02.791Z,1.30
2018-09-04T04:32:02.240Z,1.30
2018-09-04T04:33:02.512Z,1.40
2018-09-04T04:34:02.271Z,1.20
2018-09-04T04:35:02.286Z,1.20
2018-09-04T04:36:02.303Z,1.40
2018-09-04T04:37:02.411Z,1.20
2018-09-04T04:38:02.331Z,1.40
2018-09-04T04:39:02.322Z,1.30
2018-09-04T04:40:02.372Z,1.20
2018-09-04T04:41:02.346Z,1.30
2018-09-04T04:42:02.457Z,1.30
2018-09-04T04:43:02.366Z,1.20
2018-09-04T04:44:02.386Z,1.30
2018-09-04T04:45:02.405Z,1.30
2018-09-04T04:46:02.411Z,1.10
2018-09-04T04:47:02.522Z,1.40
2018-09-04T04:48:02.519Z,1.30
2018-09-04T04:49:02.430Z,1.40
2018-09-04T04:50:02.451Z,1.40
2018-09-04T04:51:02.453Z,1.20
2018-09-04T04:52:02.729Z,1.30
2018-09-04T04:53:02.488Z,1.30
2018-09-04T04:54:02.504Z,1.30
2018-09-04T04:55:02.503Z,1.30
2018-09-04T04:56:02.520Z,1.40
2018-09-04T04:57:02.679Z,1.40
2018-09-04T04:58:02.543Z,1.40
2018-09-04T04:59:02.556Z,1.40
2018-09-04T05:00:02.562Z,1.30
2018-09-04T05:01:02.580Z,1.30
2018-09-04T05:02:02.737Z,1.30
2018-09-04T05:03:02.597Z,1.20
2018-09-04T05:04:02.614Z,1.40
2018-09-04T05:05:02.617Z,1.30
2018-09-04T05:06:02.626Z,1.30
2018-09-04T05:07:02.792Z,1.40
2018-09-04T05:08:02.646Z,1.40
2018-09-04T05:09:02.647Z,1.30
2018-09-04T05:10:02.669Z,1.30
2018-09-04T05:11:02.753Z,1.50
2018-09-04T05:12:02.946Z,1.50
2018-09-04T05:13:02.702Z,1.40
2018-09-04T05:14:02.726Z,1.40
2018-09-04T05:15:02.724Z,1.40
2018-09-04T05:16:02.720Z,1.50
2018-09-04T05:17:02.893Z,1.50
2018-09-04T05:18:02.762Z,1.30
2018-09-04T05:19:02.769Z,1.60
2018-09-04T05:20:02.780Z,1.50
2018-09-04T05:21:02.788Z,1.30
2018-09-04T05:22:02.955Z,1.30
2018-09-04T05:23:02.804Z,1.40
2018-09-04T05:24:02.806Z,1.30
2018-09-04T05:25:02.819Z,1.30
2018-09-04T05:26:02.835Z,1.40
2018-09-04T05:27:02.953Z,1.30
2018-09-04T05:28:02.868Z,1.30
2018-09-04T05:29:02.875Z,1.30
2018-09-04T05:30:02.896Z,1.30
2018-09-04T05:31:02.894Z,1.10
2018-09-04T05:32:03.003Z,1.20
2018-09-04T05:33:02.919Z,1.10
2018-09-04T05:34:02.927Z,1.30
2018-09-04T05:35:02.940Z,1.20
2018-09-04T05:36:02.949Z,1.20
2018-09-04T05:37:03.111Z,1.20
2018-09-04T05:38:02.969Z,1.20
2018-09-04T05:39:02.983Z,1.20
2018-09-04T05:40:02.995Z,1.20
2018-09-04T05:41:02.992Z,1.20
2018-09-04T05:42:03.166Z,1.20
2018-09-04T05:43:03.022Z,1.30
2018-09-04T05:44:03.036Z,1.10
2018-09-04T05:45:03.040Z,1.30
2018-09-04T05:46:03.046Z,1.20
2018-09-04T05:47:03.170Z,1.30
2018-09-04T05:48:03.082Z,1.10
2018-09-04T05:49:03.088Z,1.10
2018-09-04T05:50:03.098Z,1.00
2018-09-04T05:51:03.099Z,1.20
2018-09-04T05:52:03.275Z,1.30
2018-09-04T05:53:03.140Z,1.10
2018-09-04T05:54:03.152Z,1.20
2018-09-04T05:55:03.220Z,1.20
2018-09-04T05:56:03.169Z,1.20
2018-09-04T05:57:03.281Z,1.00
2018-09-04T05:58:03.175Z,1.10
2018-09-04T05:59:03.199Z,1.10
2018-09-04T06:00:03.214Z,1.20
2018-09-04T06:01:03.226Z,1.30
2018-09-04T06:02:03.379Z,1.20
2018-09-04T06:03:03.248Z,1.10
2018-09-04T06:04:03.259Z,1.00
2018-09-04T06:05:03.266Z,1.20
2018-09-04T06:06:03.276Z,1.10
2018-09-04T06:07:03.273Z,1.10
2018-09-04T06:08:03.446Z,1.20
2018-09-04T06:09:03.311Z,1.00
2018-09-04T06:10:03.319Z,1.10
2018-09-04T06:11:03.331Z,1.20
2018-09-04T06:12:03.351Z,1.20
2018-09-04T06:13:03.499Z,1.20
2018-09-04T06:14:03.362Z,1.10
2018-09-04T06:15:03.377Z,1.20
2018-09-04T06:16:03.388Z,1.30
2018-09-04T06:17:03.405Z,1.40
2018-09-04T06:18:03.559Z,1.30
2018-09-04T06:19:03.422Z,1.30
2018-09-04T06:20:03.453Z,1.00
2018-09-04T06:21:03.441Z,1.10
2018-09-04T06:22:03.451Z,1.10
2018-09-04T06:23:03.619Z,1.10
2018-09-04T06:24:03.475Z,1.10
2018-09-04T06:25:03.493Z,1.30
2018-09-04T06:26:03.495Z,1.20
2018-09-04T06:27:03.506Z,1.20
2018-09-04T06:28:03.656Z,1.30
2018-09-04T06:29:03.528Z,1.30
2018-09-04T06:30:03.539Z,1.40
2018-09-04T06:31:03.535Z,1.60
2018-09-04T06:32:03.564Z,1.30
2018-09-04T06:33:03.727Z,1.50
2018-09-04T06:34:03.660Z,1.40
2018-09-04T06:35:03.599Z,1.30
2018-09-04T06:36:03.634Z,1.30
2018-09-04T06:37:03.615Z,1.20
2018-09-04T06:38:03.778Z,1.60
2018-09-04T06:39:03.643Z,1.30
2018-09-04T06:40:03.655Z,1.30
2018-09-04T06:41:03.668Z,1.40
2018-09-04T06:42:03.674Z,1.40
2018-09-04T06:43:03.786Z,1.10
2018-09-04T06:44:03.692Z,0.90
2018-09-04T06:45:03.689Z,1.00
2018-09-04T06:46:03.717Z,1.00
2018-09-04T06:47:03.730Z,1.00
2018-09-04T06:48:03.844Z,1.10
2018-09-04T06:49:03.749Z,1.20
2018-09-04T06:50:03.757Z,1.00
2018-09-04T06:51:03.774Z,1.10
2018-09-04T06:52:03.783Z,1.00
2018-09-04T06:53:04.148Z,1.10
2018-09-04T06:54:03.790Z,1.00
2018-09-04T06:55:03.815Z,1.10
2018-09-04T06:56:03.824Z,1.10
2018-09-04T06:57:03.836Z,1.00
2018-09-04T06:58:03.997Z,1.10
2018-09-04T06:59:03.852Z,1.00
2018-09-04T07:00:03.862Z,1.10
2018-09-04T07:01:03.880Z,1.10
2018-09-04T07:02:03.888Z,0.90
2018-09-04T07:03:04.004Z,1.10
2018-09-04T07:04:03.916Z,1.00
2018-09-04T07:05:03.929Z,1.00
2018-09-04T07:06:04.005Z,1.10
2018-09-04T07:07:03.943Z,1.00
2018-09-04T07:08:04.105Z,1.10
2018-09-04T07:09:03.951Z,1.10
2018-09-04T07:10:03.977Z,1.10
2018-09-04T07:11:03.975Z,0.90
2018-09-04T07:12:03.999Z,1.20
2018-09-04T07:13:04.161Z,0.80
2018-09-04T07:14:04.024Z,0.90
2018-09-04T07:15:04.085Z,1.00
2018-09-04T07:16:04.043Z,0.80
2018-09-04T07:17:04.064Z,0.80
2018-09-04T07:18:04.161Z,0.80
2018-09-04T07:19:04.077Z,0.80
2018-09-04T07:20:04.088Z,1.00
2018-09-04T07:21:04.097Z,1.00
2018-09-04T07:22:04.095Z,1.00
2018-09-04T07:23:04.274Z,1.10
2018-09-04T07:24:04.154Z,1.00
2018-09-04T07:25:04.127Z,1.40
2018-09-04T07:26:04.138Z,1.10
2018-09-04T07:27:04.164Z,1.30
2018-09-04T07:28:04.274Z,1.30
2018-09-04T07:29:04.186Z,1.30
2018-09-04T07:30:04.195Z,1.30
2018-09-04T07:31:04.204Z,1.30
2018-09-04T07:32:04.213Z,1.20
2018-09-04T07:33:04.313Z,1.30
2018-09-04T07:34:04.241Z,1.20
2018-09-04T07:35:04.246Z,1.00
2018-09-04T07:36:04.257Z,1.30
2018-09-04T07:37:04.275Z,1.30
2018-09-04T07:38:04.283Z,1.40
2018-09-04T07:39:04.444Z,1.10
2018-09-04T07:40:04.302Z,1.00
2018-09-04T07:41:04.313Z,1.10
2018-09-04T07:42:04.387Z,1.20
2018-09-04T07:43:04.335Z,1.20
2018-09-04T07:44:04.497Z,1.00
2018-09-04T07:45:04.343Z,1.10
2018-09-04T07:46:04.364Z,1.10
2018-09-04T07:47:04.381Z,1.10
2018-09-04T07:48:04.376Z,1.20
2018-09-04T07:49:04.548Z,1.20
2018-09-04T07:50:04.409Z,1.10
2018-09-04T07:51:04.415Z,0.90
2018-09-04T07:52:04.430Z,1.30
2018-09-04T07:53:04.437Z,1.20
2018-09-04T07:54:04.601Z,1.20
2018-09-04T07:55:04.468Z,1.10
2018-09-04T07:56:04.464Z,1.20
2018-09-04T07:57:04.486Z,1.30
2018-09-04T07:58:04.495Z,1.20
2018-09-04T07:59:04.752Z,1.20
2018-09-04T08:00:04.524Z,1.40
2018-09-04T08:01:04.636Z,1.40
2018-09-04T08:02:04.527Z,1.30
2018-09-04T08:03:04.550Z,1.30
2018-09-04T08:04:04.707Z,1.30
2018-09-04T08:05:04.570Z,1.20
2018-09-04T08:06:04.571Z,1.30
2018-09-04T08:07:04.590Z,1.20
2018-09-04T08:08:04.605Z,1.10
2018-09-04T08:09:04.716Z,1.30
2018-09-04T08:10:04.623Z,1.30
2018-09-04T08:11:04.618Z,1.20
2018-09-04T08:12:04.629Z,1.20
2018-09-04T08:13:04.653Z,1.40
2018-09-04T08:14:04.810Z,1.20
2018-09-04T08:15:04.678Z,1.20
2018-09-04T08:16:04.685Z,1.10
2018-09-04T08:17:04.696Z,1.30
2018-09-04T08:18:04.708Z,1.20
2018-09-04T08:19:04.874Z,1.20
2018-09-04T08:20:04.728Z,1.20
2018-09-04T08:21:04.741Z,1.40
2018-09-04T08:22:04.744Z,1.50
2018-09-04T08:23:04.767Z,1.40
2018-09-04T08:24:04.916Z,1.30
2018-09-04T08:25:04.780Z,1.20
2018-09-04T08:26:04.823Z,1.50
2018-09-04T08:27:04.804Z,1.30
2018-09-04T08:28:04.808Z,1.30
2018-09-04T08:29:04.922Z,1.30
2018-09-04T08:30:04.835Z,1.50
2018-09-04T08:31:04.848Z,1.40
2018-09-04T08:32:04.859Z,1.30
2018-09-04T08:33:04.880Z,1.40
2018-09-04T08:34:04.979Z,1.30
2018-09-04T08:35:04.887Z,1.20
2018-09-04T08:36:04.901Z,1.20
2018-09-04T08:37:04.916Z,1.20
2018-09-04T08:38:04.922Z,1.20
2018-09-04T08:39:05.066Z,1.30
2018-09-04T08:40:05.007Z,1.10
2018-09-04T08:41:04.941Z,1.10
2018-09-04T08:42:04.963Z,1.50
2018-09-04T08:43:04.979Z,1.20
2018-09-04T08:44:05.081Z,1.30
2018-09-04T08:45:04.993Z,1.20
2018-09-04T08:46:04.993Z,1.20
2018-09-04T08:47:05.013Z,1.20
2018-09-04T08:48:05.028Z,1.20
2018-09-04T08:49:05.138Z,1.10
2018-09-04T08:50:05.049Z,1.20
2018-09-04T08:51:05.056Z,1.00
2018-09-04T08:52:05.071Z,0.90
2018-09-04T08:53:05.084Z,1.10
2018-09-04T08:54:05.241Z,0.90
2018-09-04T08:55:05.085Z,0.90
2018-09-04T08:56:05.112Z,0.90
2018-09-04T08:57:05.125Z,0.90
2018-09-04T08:58:05.132Z,0.90
2018-09-04T08:59:05.251Z,0.60
2018-09-04T09:00:05.160Z,0.80
2018-09-04T09:01:05.166Z,0.90
2018-09-04T09:02:05.181Z,0.70
2018-09-04T09:03:05.192Z,0.80
2018-09-04T09:04:05.292Z,0.80
2018-09-04T09:05:05.217Z,0.80
2018-09-04T09:06:05.215Z,0.90
2018-09-04T09:07:05.230Z,0.90
2018-09-04T09:08:05.230Z,0.90
2018-09-04T09:09:05.255Z,1.00
2018-09-04T09:10:05.391Z,1.00
2018-09-04T09:11:05.263Z,1.00
2018-09-04T09:12:05.281Z,1.10
2018-09-04T09:13:05.293Z,0.90
2018-09-04T09:14:05.307Z,1.10
2018-09-04T09:15:05.417Z,1.00
2018-09-04T09:16:05.365Z,0.80
2018-09-04T09:17:05.336Z,0.80
2018-09-04T09:18:05.340Z,0.80
2018-09-04T09:19:05.361Z,0.90
2018-09-04T09:20:05.525Z,0.80
2018-09-04T09:21:05.387Z,0.70
2018-09-04T09:22:05.394Z,0.70
2018-09-04T09:23:05.399Z,0.70
2018-09-04T09:24:05.413Z,0.60
2018-09-04T09:25:05.531Z,1.00
2018-09-04T09:26:05.439Z,0.70
2018-09-04T09:27:05.447Z,0.50
2018-09-04T09:28:05.458Z,0.60
2018-09-04T09:29:05.457Z,0.60
2018-09-04T09:30:05.630Z,0.50
2018-09-04T09:31:05.490Z,0.40
2018-09-04T09:32:05.495Z,0.50
2018-09-04T09:33:05.526Z,0.50
2018-09-04T09:34:05.520Z,0.60
2018-09-04T09:35:05.711Z,0.70
2018-09-04T09:36:05.540Z,0.60
2018-09-04T09:37:05.705Z,0.60
2018-09-04T09:38:05.543Z,0.50
2018-09-04T09:39:05.577Z,0.70
2018-09-04T09:40:05.672Z,0.70
2018-09-04T09:41:05.592Z,0.80
2018-09-04T09:42:05.603Z,1.00
2018-09-04T09:43:05.610Z,0.70
2018-09-04T09:44:05.629Z,0.80
2018-09-04T09:45:05.736Z,0.90
2018-09-04T09:46:05.649Z,0.70
2018-09-04T09:47:05.658Z,0.70
2018-09-04T09:48:05.657Z,0.80
2018-09-04T09:49:05.684Z,0.90
2018-09-04T09:50:05.839Z,0.60
2018-09-04T09:51:05.702Z,0.80
2018-09-04T09:52:05.720Z,0.70
2018-09-04T09:53:05.909Z,0.70
2018-09-04T09:54:05.774Z,0.80
2018-09-04T09:55:05.900Z,0.90
2018-09-04T09:56:05.815Z,0.90
2018-09-04T09:57:05.775Z,0.90
2018-09-04T09:58:05.785Z,0.90
2018-09-04T09:59:05.848Z,0.90
2018-09-04T10:00:05.975Z,1.00
2018-09-04T10:01:05.824Z,0.90
2018-09-04T10:02:05.823Z,0.70
2018-09-04T10:03:05.832Z,0.90
2018-09-04T10:04:05.925Z,0.80
2018-09-04T10:05:06.037Z,0.80
2018-09-04T10:06:05.864Z,0.90
2018-09-04T10:07:05.879Z,0.80
2018-09-04T10:08:06.039Z,0.90
2018-09-04T10:09:05.901Z,0.80
2018-09-04T10:10:06.094Z,1.00
2018-09-04T10:11:05.921Z,0.90
2018-09-04T10:12:05.937Z,1.00
2018-09-04T10:13:05.939Z,1.00
2018-09-04T10:14:05.953Z,1.00
2018-09-04T10:15:06.120Z,0.90
2018-09-04T10:16:05.975Z,1.10
2018-09-04T10:17:05.990Z,1.20
2018-09-04T10:18:05.998Z,1.30
2018-09-04T10:19:06.010Z,1.10
2018-09-04T10:20:06.118Z,1.00
2018-09-04T10:21:06.028Z,1.20
2018-09-04T10:22:06.038Z,1.20
2018-09-04T10:23:06.051Z,1.10
2018-09-04T10:24:06.048Z,1.30
2018-09-04T10:25:06.168Z,1.30
2018-09-04T10:26:06.082Z,1.50
2018-09-04T10:27:06.076Z,1.30
2018-09-04T10:28:06.105Z,1.10
2018-09-04T10:29:06.117Z,1.30
2018-09-04T10:30:06.223Z,1.10
2018-09-04T10:31:06.139Z,1.20
2018-09-04T10:32:06.140Z,1.10
2018-09-04T10:33:06.161Z,1.20
2018-09-04T10:34:06.173Z,1.30
2018-09-04T10:35:06.283Z,1.30
2018-09-04T10:36:06.208Z,1.40
2018-09-04T10:37:06.191Z,1.20
2018-09-04T10:38:06.214Z,1.30
2018-09-04T10:39:06.211Z,1.30
2018-09-04T10:40:06.226Z,1.20
2018-09-04T10:41:06.403Z,1.50
2018-09-04T10:42:06.267Z,1.30
2018-09-04T10:43:06.274Z,1.50
2018-09-04T10:44:06.286Z,1.30
2018-09-04T10:45:06.294Z,1.30
2018-09-04T10:46:06.459Z,1.40
2018-09-04T10:47:06.321Z,1.20
2018-09-04T10:48:06.333Z,1.30
2018-09-04T10:49:06.337Z,1.40
2018-09-04T10:50:06.338Z,1.40
2018-09-04T10:51:06.514Z,1.40
2018-09-04T10:52:06.375Z,1.40
2018-09-04T10:53:06.395Z,1.50
2018-09-04T10:54:06.386Z,1.60
2018-09-04T10:55:06.410Z,1.40
2018-09-04T10:56:06.512Z,1.40
2018-09-04T10:57:06.441Z,1.50
2018-09-04T10:58:06.433Z,1.50
2018-09-04T10:59:06.456Z,1.50
2018-09-04T11:00:06.469Z,1.50
2018-09-04T11:01:06.630Z,1.20
2018-09-04T11:02:06.505Z,1.20
2018-09-04T11:03:06.490Z,1.40
2018-09-04T11:04:06.523Z,1.40
2018-09-04T11:05:06.519Z,1.30
2018-09-04T11:06:06.693Z,1.20
2018-09-04T11:07:06.555Z,1.20
2018-09-04T11:08:06.568Z,1.30
2018-09-04T11:09:06.609Z,1.40
2018-09-04T11:10:06.595Z,1.60
2018-09-04T11:11:06.704Z,1.30
2018-09-04T11:12:06.616Z,1.50
2018-09-04T11:13:06.632Z,1.40
2018-09-04T11:14:06.630Z,1.50
2018-09-04T11:15:06.657Z,1.50
2018-09-04T11:16:06.768Z,1.60
2018-09-04T11:17:06.664Z,1.70
2018-09-04T11:18:06.692Z,1.80
2018-09-04T11:19:06.702Z,1.70
2018-09-04T11:20:06.711Z,1.80
2018-09-04T11:21:06.867Z,1.90
2018-09-04T11:22:06.745Z,2.10
2018-09-04T11:23:06.749Z,1.80
2018-09-04T11:24:06.767Z,1.90
2018-09-04T11:25:06.760Z,1.70
2018-09-04T11:26:06.937Z,1.80
2018-09-04T11:27:06.803Z,1.70
2018-09-04T11:28:06.813Z,1.60
2018-09-04T11:29:06.837Z,1.80
2018-09-04T11:30:06.840Z,1.70
2018-09-04T11:31:06.953Z,1.70
2018-09-04T11:32:06.871Z,1.60
2018-09-04T11:33:06.868Z,1.40
2018-09-04T11:34:06.876Z,1.70
2018-09-04T11:35:06.918Z,1.70
2018-09-04T11:36:07.071Z,1.50
2018-09-04T11:37:06.932Z,1.60
2018-09-04T11:38:06.950Z,1.30
2018-09-04T11:39:06.947Z,1.40
2018-09-04T11:40:06.972Z,1.70
2018-09-04T11:41:07.139Z,1.40
2018-09-04T11:42:06.992Z,1.40
2018-09-04T11:43:07.021Z,1.40
2018-09-04T11:44:07.030Z,1.50
2018-09-04T11:45:07.045Z,1.30
2018-09-04T11:46:07.141Z,1.30
2018-09-04T11:47:07.057Z,1.10
2018-09-04T11:48:07.083Z,1.20
2018-09-04T11:49:07.104Z,1.10
2018-09-04T11:50:07.114Z,1.40
2018-09-04T11:51:07.212Z,1.50
2018-09-04T11:52:07.143Z,1.50
2018-09-04T11:53:07.143Z,1.30
2018-09-04T11:54:07.167Z,1.40
2018-09-04T11:55:07.190Z,1.40
2018-09-04T11:56:07.184Z,1.30
2018-09-04T11:57:07.317Z,1.30
2018-09-04T11:58:07.218Z,1.30
2018-09-04T11:59:07.243Z,1.30
2018-09-04T12:00:07.263Z,1.40
2018-09-04T12:01:07.259Z,1.30
2018-09-04T12:02:07.452Z,1.40
2018-09-04T12:03:07.310Z,1.30
2018-09-04T12:04:07.321Z,1.50
2018-09-04T12:05:07.343Z,1.60
2018-09-04T12:06:07.355Z,1.40
2018-09-04T12:07:07.452Z,1.60
2018-09-04T12:08:07.389Z,1.50
2018-09-04T12:09:07.384Z,1.50
2018-09-04T12:10:07.424Z,1.50
2018-09-04T12:11:07.428Z,1.50
2018-09-04T12:12:07.689Z,1.60
2018-09-04T12:13:07.539Z,1.50
2018-09-04T12:14:07.479Z,1.60
2018-09-04T12:15:07.485Z,1.70
2018-09-04T12:16:07.532Z,1.60
2018-09-04T12:17:07.615Z,1.70
2018-09-04T12:18:07.529Z,1.50
2018-09-04T12:19:07.565Z,1.60
2018-09-04T12:20:07.565Z,1.50
2018-09-04T12:21:07.751Z,1.50
2018-09-04T12:22:07.697Z,1.70
2018-09-04T12:23:07.614Z,1.60
2018-09-04T12:24:07.632Z,1.40
2018-09-04T12:25:07.631Z,1.50
2018-09-04T12:26:07.659Z,1.60
2018-09-04T12:27:07.981Z,1.50
2018-09-04T12:28:07.685Z,1.40
2018-09-04T12:29:07.738Z,1.30
2018-09-04T12:30:07.727Z,1.50
2018-09-04T12:31:07.733Z,1.70
2018-09-04T12:32:07.872Z,1.50
2018-09-04T12:33:07.771Z,1.60
2018-09-04T12:34:07.773Z,1.40
2018-09-04T12:35:07.805Z,1.60
2018-09-04T12:36:07.818Z,1.60
2018-09-04T12:37:07.975Z,1.60
2018-09-04T12:38:07.843Z,1.70
2018-09-04T12:39:07.861Z,1.80
2018-09-04T12:40:07.865Z,1.70
2018-09-04T12:41:07.893Z,1.80
2018-09-04T12:42:08.002Z,1.70
2018-09-04T12:43:07.920Z,1.70
2018-09-04T12:44:08.020Z,1.80
2018-09-04T12:45:07.989Z,1.70
2018-09-04T12:46:07.966Z,1.60
2018-09-04T12:47:08.087Z,2.00
2018-09-04T12:48:08.038Z,1.80
2018-09-04T12:49:08.106Z,1.70
2018-09-04T12:50:08.031Z,1.80
2018-09-04T12:51:08.035Z,1.60
2018-09-04T12:52:08.167Z,1.80
2018-09-04T12:53:08.075Z,1.80
2018-09-04T12:54:08.107Z,2.20
2018-09-04T12:55:08.138Z,2.30
2018-09-04T12:56:08.123Z,1.70
2018-09-04T12:57:08.283Z,1.80
2018-09-04T12:58:08.145Z,2.00
2018-09-04T12:59:08.208Z,2.00
2018-09-04T13:00:08.180Z,1.80
2018-09-04T13:01:08.198Z,1.80
2018-09-04T13:02:08.231Z,2.00
2018-09-04T13:03:08.430Z,1.90
2018-09-04T13:04:08.241Z,1.70
2018-09-04T13:05:08.276Z,1.70
2018-09-04T13:06:08.266Z,1.70
2018-09-04T13:07:08.283Z,1.50
2018-09-04T13:08:08.461Z,1.70
2018-09-04T13:09:08.428Z,1.70
2018-09-04T13:10:08.343Z,1.70
2018-09-04T13:11:08.420Z,1.80
2018-09-04T13:12:08.387Z,1.60
2018-09-04T13:13:08.535Z,1.50
2018-09-04T13:14:08.409Z,1.70
2018-09-04T13:15:08.404Z,1.60
2018-09-04T13:16:08.449Z,1.70
2018-09-04T13:17:08.439Z,1.80
2018-09-04T13:18:08.601Z,1.70
2018-09-04T13:19:08.521Z,1.60